sensor_id;sensor_type;location;lat;lon;timestamp;temperature;humidity
19930;DHT22;10127;47.780;9.606;2024-03-08T00:00:17;3.40;99.90
19930;DHT22;10127;47.780;9.606;2024-03-08T00:02:46;3.40;99.90
19930;DHT22;10127;47.780;9.606;2024-03-08T00:05:13;3.40;99.90
19930;DHT22;10127;47.780;9.606;2024-03-08T00:07:39;3.40;99.90
19930;DHT22;10127;47.780;9.606;2024-03-08T00:10:10;3.40;99.90
19930;DHT22;10127;47.780;9.606;2024-03-08T00:12:43;3.40;99.90
19930;DHT22;10127;47.780;9.606;2024-03-08T00:15:13;3.40;99.90
19930;DHT22;10127;47.780;9.606;2024-03-08T00:17:40;3.30;99.90
19930;DHT22;10127;47.780;9.606;2024-03-08T00:20:06;3.30;99.90
19930;DHT22;10127;47.780;9.606;2024-03-08T00:22:37;3.30;99.90
19930;DHT22;10127;47.780;9.606;2024-03-08T00:25:04;3.30;99.90
19930;DHT22;10127;47.780;9.606;2024-03-08T00:27:30;3.30;99.90
19930;DHT22;10127;47.780;9.606;2024-03-08T00:29:57;3.20;99.90
19930;DHT22;10127;47.780;9.606;2024-03-08T00:32:22;3.20;99.90
19930;DHT22;10127;47.780;9.606;2024-03-08T00:34:51;3.20;99.90
19930;DHT22;10127;47.780;9.606;2024-03-08T00:37:20;3.20;99.90
19930;DHT22;10127;47.780;9.606;2024-03-08T00:39:47;3.20;99.90
19930;DHT22;10127;47.780;9.606;2024-03-08T00:42:14;3.20;99.90
19930;DHT22;10127;47.780;9.606;2024-03-08T00:44:40;3.10;99.90
19930;DHT22;10127;47.780;9.606;2024-03-08T00:47:06;3.10;99.90
19930;DHT22;10127;47.780;9.606;2024-03-08T00:49:31;3.10;99.90
19930;DHT22;10127;47.780;9.606;2024-03-08T00:51:57;3.00;99.90
19930;DHT22;10127;47.780;9.606;2024-03-08T00:54:23;3.10;99.90
19930;DHT22;10127;47.780;9.606;2024-03-08T00:56:48;3.00;99.90
19930;DHT22;10127;47.780;9.606;2024-03-08T00:59:14;3.00;99.90
19930;DHT22;10127;47.780;9.606;2024-03-08T01:01:40;3.00;99.90
19930;DHT22;10127;47.780;9.606;2024-03-08T01:04:06;2.90;99.90
19930;DHT22;10127;47.780;9.606;2024-03-08T01:06:33;2.90;99.90
19930;DHT22;10127;47.780;9.606;2024-03-08T01:08:59;2.90;99.90
19930;DHT22;10127;47.780;9.606;2024-03-08T01:11:25;2.90;99.90
19930;DHT22;10127;47.780;9.606;2024-03-08T01:13:50;2.90;99.90
19930;DHT22;10127;47.780;9.606;2024-03-08T01:16:16;2.90;99.90
19930;DHT22;10127;47.780;9.606;2024-03-08T01:18:43;2.80;99.90
19930;DHT22;10127;47.780;9.606;2024-03-08T01:21:08;2.80;99.90
19930;DHT22;10127;47.780;9.606;2024-03-08T01:23:34;2.80;99.90
19930;DHT22;10127;47.780;9.606;2024-03-08T01:26:00;2.70;99.90
19930;DHT22;10127;47.780;9.606;2024-03-08T01:28:27;2.70;99.90
19930;DHT22;10127;47.780;9.606;2024-03-08T01:30:53;2.70;99.90
19930;DHT22;10127;47.780;9.606;2024-03-08T01:33:24;2.60;99.90
19930;DHT22;10127;47.780;9.606;2024-03-08T01:35:54;2.60;99.90
19930;DHT22;10127;47.780;9.606;2024-03-08T01:38:20;2.60;99.90
19930;DHT22;10127;47.780;9.606;2024-03-08T01:40:49;2.50;99.90
19930;DHT22;10127;47.780;9.606;2024-03-08T01:43:18;2.50;99.90
19930;DHT22;10127;47.780;9.606;2024-03-08T01:45:44;2.50;99.90
19930;DHT22;10127;47.780;9.606;2024-03-08T01:48:10;2.50;99.90
19930;DHT22;10127;47.780;9.606;2024-03-08T01:50:38;2.60;99.90
19930;DHT22;10127;47.780;9.606;2024-03-08T01:53:05;2.40;99.90
19930;DHT22;10127;47.780;9.606;2024-03-08T01:55:31;2.40;99.90
19930;DHT22;10127;47.780;9.606;2024-03-08T01:57:58;2.40;99.90
19930;DHT22;10127;47.780;9.606;2024-03-08T02:00:25;2.40;99.90
19930;DHT22;10127;47.780;9.606;2024-03-08T02:02:54;2.40;99.90
19930;DHT22;10127;47.780;9.606;2024-03-08T02:05:20;2.40;99.90
19930;DHT22;10127;47.780;9.606;2024-03-08T02:07:46;2.40;99.90
19930;DHT22;10127;47.780;9.606;2024-03-08T02:10:12;2.30;99.90
19930;DHT22;10127;47.780;9.606;2024-03-08T02:12:38;2.30;99.90
19930;DHT22;10127;47.780;9.606;2024-03-08T02:15:04;2.30;99.90
19930;DHT22;10127;47.780;9.606;2024-03-08T02:17:32;2.30;99.90
19930;DHT22;10127;47.780;9.606;2024-03-08T02:20:02;2.30;99.90
19930;DHT22;10127;47.780;9.606;2024-03-08T02:22:30;2.20;99.90
19930;DHT22;10127;47.780;9.606;2024-03-08T02:24:56;2.20;99.90
19930;DHT22;10127;47.780;9.606;2024-03-08T02:27:25;2.20;99.90
19930;DHT22;10127;47.780;9.606;2024-03-08T02:29:53;2.30;99.90
19930;DHT22;10127;47.780;9.606;2024-03-08T02:32:21;2.20;99.90
19930;DHT22;10127;47.780;9.606;2024-03-08T02:34:47;2.20;99.90
19930;DHT22;10127;47.780;9.606;2024-03-08T02:37:13;2.20;99.90
19930;DHT22;10127;47.780;9.606;2024-03-08T02:39:38;2.20;99.90
19930;DHT22;10127;47.780;9.606;2024-03-08T02:42:04;2.10;99.90
19930;DHT22;10127;47.780;9.606;2024-03-08T02:44:30;2.10;99.90
19930;DHT22;10127;47.780;9.606;2024-03-08T02:46:55;2.10;99.90
19930;DHT22;10127;47.780;9.606;2024-03-08T02:49:21;2.10;99.90
19930;DHT22;10127;47.780;9.606;2024-03-08T02:51:47;2.10;99.90
19930;DHT22;10127;47.780;9.606;2024-03-08T02:54:12;2.10;99.90
19930;DHT22;10127;47.780;9.606;2024-03-08T02:56:38;2.20;99.90
19930;DHT22;10127;47.780;9.606;2024-03-08T02:59:03;2.10;99.90
19930;DHT22;10127;47.780;9.606;2024-03-08T03:01:29;2.10;99.90
19930;DHT22;10127;47.780;9.606;2024-03-08T03:03:55;2.10;99.90
19930;DHT22;10127;47.780;9.606;2024-03-08T03:06:20;2.10;99.90
19930;DHT22;10127;47.780;9.606;2024-03-08T03:08:46;2.00;99.90
19930;DHT22;10127;47.780;9.606;2024-03-08T03:11:12;2.00;99.90
19930;DHT22;10127;47.780;9.606;2024-03-08T03:13:39;2.10;99.90
19930;DHT22;10127;47.780;9.606;2024-03-08T03:16:05;2.00;99.90
19930;DHT22;10127;47.780;9.606;2024-03-08T03:18:31;2.10;99.90
19930;DHT22;10127;47.780;9.606;2024-03-08T03:20:58;2.10;99.90
19930;DHT22;10127;47.780;9.606;2024-03-08T03:23:24;2.10;99.90
19930;DHT22;10127;47.780;9.606;2024-03-08T03:25:51;2.10;99.90
19930;DHT22;10127;47.780;9.606;2024-03-08T03:28:17;2.10;99.90
19930;DHT22;10127;47.780;9.606;2024-03-08T03:30:47;2.10;99.90
19930;DHT22;10127;47.780;9.606;2024-03-08T03:33:12;2.00;99.90
19930;DHT22;10127;47.780;9.606;2024-03-08T03:35:40;2.10;99.90
19930;DHT22;10127;47.780;9.606;2024-03-08T03:38:06;2.00;99.90
19930;DHT22;10127;47.780;9.606;2024-03-08T03:40:39;2.00;99.90
19930;DHT22;10127;47.780;9.606;2024-03-08T03:43:06;2.00;99.90
19930;DHT22;10127;47.780;9.606;2024-03-08T03:45:32;1.90;99.90
19930;DHT22;10127;47.780;9.606;2024-03-08T03:48:04;1.90;99.90
19930;DHT22;10127;47.780;9.606;2024-03-08T03:50:31;2.00;99.90
19930;DHT22;10127;47.780;9.606;2024-03-08T03:52:59;1.90;99.90
19930;DHT22;10127;47.780;9.606;2024-03-08T03:55:25;1.90;99.90
19930;DHT22;10127;47.780;9.606;2024-03-08T03:57:50;1.90;99.90
19930;DHT22;10127;47.780;9.606;2024-03-08T04:00:16;1.90;99.90
19930;DHT22;10127;47.780;9.606;2024-03-08T04:02:42;1.90;99.90
19930;DHT22;10127;47.780;9.606;2024-03-08T04:05:08;1.90;99.90
19930;DHT22;10127;47.780;9.606;2024-03-08T04:07:35;1.90;99.90
19930;DHT22;10127;47.780;9.606;2024-03-08T04:10:04;1.90;99.90
19930;DHT22;10127;47.780;9.606;2024-03-08T04:12:34;1.90;99.90
19930;DHT22;10127;47.780;9.606;2024-03-08T04:15:00;1.80;99.90
19930;DHT22;10127;47.780;9.606;2024-03-08T04:17:26;1.80;99.90
19930;DHT22;10127;47.780;9.606;2024-03-08T04:19:52;1.70;99.90
19930;DHT22;10127;47.780;9.606;2024-03-08T04:22:18;1.70;99.90
19930;DHT22;10127;47.780;9.606;2024-03-08T04:24:44;1.70;99.90
19930;DHT22;10127;47.780;9.606;2024-03-08T04:27:10;1.60;99.90
19930;DHT22;10127;47.780;9.606;2024-03-08T04:29:35;1.70;99.90
19930;DHT22;10127;47.780;9.606;2024-03-08T04:32:03;1.80;99.90
19930;DHT22;10127;47.780;9.606;2024-03-08T04:34:30;1.90;99.90
19930;DHT22;10127;47.780;9.606;2024-03-08T04:36:57;1.90;99.90
19930;DHT22;10127;47.780;9.606;2024-03-08T04:39:23;2.00;99.90
19930;DHT22;10127;47.780;9.606;2024-03-08T04:41:49;2.20;99.90
19930;DHT22;10127;47.780;9.606;2024-03-08T04:44:16;2.20;99.90
19930;DHT22;10127;47.780;9.606;2024-03-08T04:46:43;2.30;99.90
19930;DHT22;10127;47.780;9.606;2024-03-08T04:49:09;2.40;99.90
19930;DHT22;10127;47.780;9.606;2024-03-08T04:51:37;2.40;99.90
19930;DHT22;10127;47.780;9.606;2024-03-08T04:54:03;2.50;99.90
19930;DHT22;10127;47.780;9.606;2024-03-08T04:56:30;2.60;99.90
19930;DHT22;10127;47.780;9.606;2024-03-08T04:58:55;2.60;99.90
19930;DHT22;10127;47.780;9.606;2024-03-08T05:01:21;2.60;99.90
19930;DHT22;10127;47.780;9.606;2024-03-08T05:03:47;2.60;99.90
19930;DHT22;10127;47.780;9.606;2024-03-08T05:06:15;2.70;99.90
19930;DHT22;10127;47.780;9.606;2024-03-08T05:08:41;2.60;99.90
19930;DHT22;10127;47.780;9.606;2024-03-08T05:11:07;2.70;99.90
19930;DHT22;10127;47.780;9.606;2024-03-08T05:13:32;2.70;99.90
19930;DHT22;10127;47.780;9.606;2024-03-08T05:15:59;2.60;99.90
19930;DHT22;10127;47.780;9.606;2024-03-08T05:18:25;2.70;99.90
19930;DHT22;10127;47.780;9.606;2024-03-08T05:20:53;2.80;99.90
19930;DHT22;10127;47.780;9.606;2024-03-08T05:23:19;2.80;99.90
19930;DHT22;10127;47.780;9.606;2024-03-08T05:25:45;2.80;99.90
19930;DHT22;10127;47.780;9.606;2024-03-08T05:28:12;3.00;99.90
19930;DHT22;10127;47.780;9.606;2024-03-08T05:30:38;3.30;99.90
19930;DHT22;10127;47.780;9.606;2024-03-08T05:33:04;3.50;99.90
19930;DHT22;10127;47.780;9.606;2024-03-08T05:35:30;3.60;99.90
19930;DHT22;10127;47.780;9.606;2024-03-08T05:37:55;3.80;99.90
19930;DHT22;10127;47.780;9.606;2024-03-08T05:40:21;4.00;99.90
19930;DHT22;10127;47.780;9.606;2024-03-08T05:42:47;3.80;99.90
19930;DHT22;10127;47.780;9.606;2024-03-08T05:45:12;3.70;99.90
19930;DHT22;10127;47.780;9.606;2024-03-08T05:47:39;3.80;99.90
19930;DHT22;10127;47.780;9.606;2024-03-08T05:50:05;4.00;99.90
19930;DHT22;10127;47.780;9.606;2024-03-08T05:52:33;4.00;99.90
19930;DHT22;10127;47.780;9.606;2024-03-08T05:54:59;4.10;99.90
19930;DHT22;10127;47.780;9.606;2024-03-08T05:57:24;4.20;99.90
19930;DHT22;10127;47.780;9.606;2024-03-08T05:59:50;4.50;99.90
19930;DHT22;10127;47.780;9.606;2024-03-08T06:02:15;4.40;99.90
19930;DHT22;10127;47.780;9.606;2024-03-08T06:04:51;4.40;99.90
19930;DHT22;10127;47.780;9.606;2024-03-08T06:07:17;4.70;99.90
19930;DHT22;10127;47.780;9.606;2024-03-08T06:09:49;4.70;99.90
19930;DHT22;10127;47.780;9.606;2024-03-08T06:12:15;4.60;99.90
19930;DHT22;10127;47.780;9.606;2024-03-08T06:14:45;4.60;99.90
19930;DHT22;10127;47.780;9.606;2024-03-08T06:17:11;4.50;99.90
19930;DHT22;10127;47.780;9.606;2024-03-08T06:19:37;4.30;99.90
19930;DHT22;10127;47.780;9.606;2024-03-08T06:22:02;4.50;99.90
19930;DHT22;10127;47.780;9.606;2024-03-08T06:24:31;4.50;99.90
19930;DHT22;10127;47.780;9.606;2024-03-08T06:26:57;4.70;99.90
19930;DHT22;10127;47.780;9.606;2024-03-08T06:29:23;4.50;99.90
19930;DHT22;10127;47.780;9.606;2024-03-08T06:31:49;4.50;99.90
19930;DHT22;10127;47.780;9.606;2024-03-08T06:34:15;4.60;99.90
19930;DHT22;10127;47.780;9.606;2024-03-08T06:36:41;4.60;99.90
19930;DHT22;10127;47.780;9.606;2024-03-08T06:39:06;4.40;99.90
19930;DHT22;10127;47.780;9.606;2024-03-08T06:41:38;4.10;99.90
19930;DHT22;10127;47.780;9.606;2024-03-08T06:44:04;4.30;99.90
19930;DHT22;10127;47.780;9.606;2024-03-08T06:46:36;4.60;99.90
19930;DHT22;10127;47.780;9.606;2024-03-08T06:49:09;4.40;99.90
19930;DHT22;10127;47.780;9.606;2024-03-08T06:51:42;4.40;99.90
19930;DHT22;10127;47.780;9.606;2024-03-08T06:54:08;4.50;99.90
19930;DHT22;10127;47.780;9.606;2024-03-08T06:56:36;4.50;99.90
19930;DHT22;10127;47.780;9.606;2024-03-08T06:59:08;4.60;99.90
19930;DHT22;10127;47.780;9.606;2024-03-08T07:01:43;4.60;99.90
19930;DHT22;10127;47.780;9.606;2024-03-08T07:04:15;4.60;99.90
19930;DHT22;10127;47.780;9.606;2024-03-08T07:06:41;4.20;99.90
19930;DHT22;10127;47.780;9.606;2024-03-08T07:09:07;4.40;99.90
19930;DHT22;10127;47.780;9.606;2024-03-08T07:11:32;4.20;99.90
19930;DHT22;10127;47.780;9.606;2024-03-08T07:14:00;4.20;99.90
19930;DHT22;10127;47.780;9.606;2024-03-08T07:16:28;4.20;99.90
19930;DHT22;10127;47.780;9.606;2024-03-08T07:18:53;4.40;99.90
19930;DHT22;10127;47.780;9.606;2024-03-08T07:21:19;4.50;99.90
19930;DHT22;10127;47.780;9.606;2024-03-08T07:23:45;4.60;99.90
19930;DHT22;10127;47.780;9.606;2024-03-08T07:26:31;4.20;99.90
19930;DHT22;10127;47.780;9.606;2024-03-08T07:28:57;3.90;99.90
19930;DHT22;10127;47.780;9.606;2024-03-08T07:31:24;4.10;99.90
19930;DHT22;10127;47.780;9.606;2024-03-08T07:34:09;4.30;99.90
19930;DHT22;10127;47.780;9.606;2024-03-08T07:36:35;4.20;99.90
19930;DHT22;10127;47.780;9.606;2024-03-08T07:39:01;4.40;99.90
19930;DHT22;10127;47.780;9.606;2024-03-08T07:41:27;4.50;99.90
19930;DHT22;10127;47.780;9.606;2024-03-08T07:43:54;4.80;99.90
19930;DHT22;10127;47.780;9.606;2024-03-08T07:46:19;4.60;99.90
19930;DHT22;10127;47.780;9.606;2024-03-08T07:48:45;4.40;99.90
19930;DHT22;10127;47.780;9.606;2024-03-08T07:51:11;4.40;99.90
19930;DHT22;10127;47.780;9.606;2024-03-08T07:53:38;4.60;99.90
19930;DHT22;10127;47.780;9.606;2024-03-08T07:56:04;4.60;99.90
19930;DHT22;10127;47.780;9.606;2024-03-08T07:58:30;4.90;99.90
19930;DHT22;10127;47.780;9.606;2024-03-08T08:00:56;5.00;99.90
19930;DHT22;10127;47.780;9.606;2024-03-08T08:03:22;4.90;99.90
19930;DHT22;10127;47.780;9.606;2024-03-08T08:05:47;4.90;99.90
19930;DHT22;10127;47.780;9.606;2024-03-08T08:08:14;4.80;99.90
19930;DHT22;10127;47.780;9.606;2024-03-08T08:10:40;4.80;99.90
19930;DHT22;10127;47.780;9.606;2024-03-08T08:13:06;5.10;99.90
19930;DHT22;10127;47.780;9.606;2024-03-08T08:15:32;4.80;99.90
19930;DHT22;10127;47.780;9.606;2024-03-08T08:18:00;5.10;99.90
19930;DHT22;10127;47.780;9.606;2024-03-08T08:20:25;5.10;99.90
19930;DHT22;10127;47.780;9.606;2024-03-08T08:22:53;5.20;99.90
19930;DHT22;10127;47.780;9.606;2024-03-08T08:25:20;5.20;99.90
19930;DHT22;10127;47.780;9.606;2024-03-08T08:27:47;5.00;99.90
19930;DHT22;10127;47.780;9.606;2024-03-08T08:30:13;4.80;99.90
19930;DHT22;10127;47.780;9.606;2024-03-08T08:32:39;4.90;99.90
19930;DHT22;10127;47.780;9.606;2024-03-08T08:35:06;5.00;99.90
19930;DHT22;10127;47.780;9.606;2024-03-08T08:37:32;5.10;99.90
19930;DHT22;10127;47.780;9.606;2024-03-08T08:39:58;5.40;99.90
19930;DHT22;10127;47.780;9.606;2024-03-08T08:42:24;5.50;99.90
19930;DHT22;10127;47.780;9.606;2024-03-08T08:44:50;5.50;99.90
19930;DHT22;10127;47.780;9.606;2024-03-08T08:47:16;5.20;99.90
19930;DHT22;10127;47.780;9.606;2024-03-08T08:49:46;5.30;99.90
19930;DHT22;10127;47.780;9.606;2024-03-08T08:52:12;5.00;99.90
19930;DHT22;10127;47.780;9.606;2024-03-08T08:54:38;5.40;99.90
19930;DHT22;10127;47.780;9.606;2024-03-08T08:57:04;5.70;99.90
19930;DHT22;10127;47.780;9.606;2024-03-08T08:59:33;6.00;99.90
19930;DHT22;10127;47.780;9.606;2024-03-08T09:02:01;5.90;99.90
19930;DHT22;10127;47.780;9.606;2024-03-08T09:04:27;6.00;99.90
19930;DHT22;10127;47.780;9.606;2024-03-08T09:06:53;5.80;99.90
19930;DHT22;10127;47.780;9.606;2024-03-08T09:09:19;5.90;99.90
19930;DHT22;10127;47.780;9.606;2024-03-08T09:11:45;5.80;99.90
19930;DHT22;10127;47.780;9.606;2024-03-08T09:14:11;6.00;99.90
19930;DHT22;10127;47.780;9.606;2024-03-08T09:16:37;5.90;99.90
19930;DHT22;10127;47.780;9.606;2024-03-08T09:19:02;6.20;99.90
19930;DHT22;10127;47.780;9.606;2024-03-08T09:21:28;6.20;99.90
19930;DHT22;10127;47.780;9.606;2024-03-08T09:23:54;6.20;99.90
19930;DHT22;10127;47.780;9.606;2024-03-08T09:26:19;6.30;99.90
19930;DHT22;10127;47.780;9.606;2024-03-08T09:28:45;6.50;99.90
19930;DHT22;10127;47.780;9.606;2024-03-08T09:31:11;6.50;99.90
19930;DHT22;10127;47.780;9.606;2024-03-08T09:33:37;6.80;99.90
19930;DHT22;10127;47.780;9.606;2024-03-08T09:36:05;6.90;99.90
19930;DHT22;10127;47.780;9.606;2024-03-08T09:38:33;6.80;99.90
19930;DHT22;10127;47.780;9.606;2024-03-08T09:41:01;6.40;99.90
19930;DHT22;10127;47.780;9.606;2024-03-08T09:43:28;6.40;99.90
19930;DHT22;10127;47.780;9.606;2024-03-08T09:45:54;6.40;99.90
19930;DHT22;10127;47.780;9.606;2024-03-08T09:48:22;6.40;99.90
19930;DHT22;10127;47.780;9.606;2024-03-08T09:50:48;6.40;99.90
19930;DHT22;10127;47.780;9.606;2024-03-08T09:53:14;6.20;99.90
19930;DHT22;10127;47.780;9.606;2024-03-08T09:55:41;6.30;99.90
19930;DHT22;10127;47.780;9.606;2024-03-08T09:58:11;6.80;99.90
19930;DHT22;10127;47.780;9.606;2024-03-08T10:00:57;6.60;99.90
19930;DHT22;10127;47.780;9.606;2024-03-08T10:03:23;6.30;99.90
19930;DHT22;10127;47.780;9.606;2024-03-08T10:05:49;6.80;99.90
19930;DHT22;10127;47.780;9.606;2024-03-08T10:08:15;6.60;99.90
19930;DHT22;10127;47.780;9.606;2024-03-08T10:10:41;6.70;99.90
19930;DHT22;10127;47.780;9.606;2024-03-08T10:13:10;7.00;99.90
19930;DHT22;10127;47.780;9.606;2024-03-08T10:15:39;7.20;99.90
19930;DHT22;10127;47.780;9.606;2024-03-08T10:18:05;6.60;99.90
19930;DHT22;10127;47.780;9.606;2024-03-08T10:20:32;6.80;99.90
19930;DHT22;10127;47.780;9.606;2024-03-08T10:23:02;7.00;99.90
19930;DHT22;10127;47.780;9.606;2024-03-08T10:25:30;6.70;99.90
19930;DHT22;10127;47.780;9.606;2024-03-08T10:27:56;6.70;99.90
19930;DHT22;10127;47.780;9.606;2024-03-08T10:30:22;6.50;99.90
19930;DHT22;10127;47.780;9.606;2024-03-08T10:32:48;7.00;99.90
19930;DHT22;10127;47.780;9.606;2024-03-08T10:35:15;6.80;99.90
19930;DHT22;10127;47.780;9.606;2024-03-08T10:37:47;7.30;99.90
19930;DHT22;10127;47.780;9.606;2024-03-08T10:40:17;8.00;99.90
19930;DHT22;10127;47.780;9.606;2024-03-08T10:42:57;7.80;99.90
19930;DHT22;10127;47.780;9.606;2024-03-08T10:45:38;7.60;99.90
19930;DHT22;10127;47.780;9.606;2024-03-08T10:48:29;7.80;99.90
19930;DHT22;10127;47.780;9.606;2024-03-08T10:50:59;7.90;99.90
19930;DHT22;10127;47.780;9.606;2024-03-08T10:53:27;7.60;99.90
19930;DHT22;10127;47.780;9.606;2024-03-08T10:55:53;7.40;99.90
19930;DHT22;10127;47.780;9.606;2024-03-08T10:58:29;6.90;99.90
19930;DHT22;10127;47.780;9.606;2024-03-08T11:00:55;6.90;99.90
19930;DHT22;10127;47.780;9.606;2024-03-08T11:06:16;6.60;99.90
19930;DHT22;10127;47.780;9.606;2024-03-08T11:08:42;6.40;99.90
19930;DHT22;10127;47.780;9.606;2024-03-08T11:11:40;6.20;99.90
19930;DHT22;10127;47.780;9.606;2024-03-08T11:14:43;6.30;99.90
19930;DHT22;10127;47.780;9.606;2024-03-08T11:17:09;6.40;99.90
19930;DHT22;10127;47.780;9.606;2024-03-08T11:19:35;6.50;99.90
19930;DHT22;10127;47.780;9.606;2024-03-08T11:22:02;6.70;99.90
19930;DHT22;10127;47.780;9.606;2024-03-08T11:24:36;7.00;99.90
19930;DHT22;10127;47.780;9.606;2024-03-08T11:27:04;7.00;99.90
19930;DHT22;10127;47.780;9.606;2024-03-08T11:32:12;7.20;99.90
19930;DHT22;10127;47.780;9.606;2024-03-08T11:34:40;7.10;99.90
19930;DHT22;10127;47.780;9.606;2024-03-08T11:37:16;6.90;99.90
19930;DHT22;10127;47.780;9.606;2024-03-08T11:40:01;6.70;99.90
19930;DHT22;10127;47.780;9.606;2024-03-08T11:42:30;6.80;99.90
19930;DHT22;10127;47.780;9.606;2024-03-08T11:44:56;6.90;99.90
19930;DHT22;10127;47.780;9.606;2024-03-08T11:47:23;7.30;99.90
19930;DHT22;10127;47.780;9.606;2024-03-08T11:49:50;7.60;99.90
19930;DHT22;10127;47.780;9.606;2024-03-08T11:52:18;8.00;99.90
19930;DHT22;10127;47.780;9.606;2024-03-08T11:54:54;8.20;99.90
19930;DHT22;10127;47.780;9.606;2024-03-08T11:57:25;8.10;99.90
19930;DHT22;10127;47.780;9.606;2024-03-08T11:59:55;8.30;99.90
19930;DHT22;10127;47.780;9.606;2024-03-08T12:02:22;7.80;99.90
19930;DHT22;10127;47.780;9.606;2024-03-08T12:04:59;7.70;99.90
19930;DHT22;10127;47.780;9.606;2024-03-08T12:07:25;7.90;99.90
19930;DHT22;10127;47.780;9.606;2024-03-08T12:10:20;7.70;99.90
19930;DHT22;10127;47.780;9.606;2024-03-08T12:12:52;7.80;99.90
19930;DHT22;10127;47.780;9.606;2024-03-08T12:15:19;8.10;99.90
19930;DHT22;10127;47.780;9.606;2024-03-08T12:17:53;8.10;99.90
19930;DHT22;10127;47.780;9.606;2024-03-08T12:20:31;8.40;99.90
19930;DHT22;10127;47.780;9.606;2024-03-08T12:22:58;8.40;99.90
19930;DHT22;10127;47.780;9.606;2024-03-08T12:25:33;8.50;99.90
19930;DHT22;10127;47.780;9.606;2024-03-08T12:28:12;9.00;99.90
19930;DHT22;10127;47.780;9.606;2024-03-08T12:30:49;8.40;99.90
19930;DHT22;10127;47.780;9.606;2024-03-08T12:33:17;8.70;99.90
19930;DHT22;10127;47.780;9.606;2024-03-08T12:35:51;8.40;99.90
19930;DHT22;10127;47.780;9.606;2024-03-08T12:38:23;8.20;99.90
19930;DHT22;10127;47.780;9.606;2024-03-08T12:40:57;8.10;99.90
19930;DHT22;10127;47.780;9.606;2024-03-08T12:43:23;8.50;99.90
19930;DHT22;10127;47.780;9.606;2024-03-08T12:45:49;8.70;99.90
19930;DHT22;10127;47.780;9.606;2024-03-08T12:48:14;8.90;99.90
19930;DHT22;10127;47.780;9.606;2024-03-08T12:50:43;8.70;99.90
19930;DHT22;10127;47.780;9.606;2024-03-08T12:53:13;8.60;99.90
19930;DHT22;10127;47.780;9.606;2024-03-08T12:55:39;8.60;99.90
19930;DHT22;10127;47.780;9.606;2024-03-08T12:58:06;8.50;99.90
19930;DHT22;10127;47.780;9.606;2024-03-08T13:00:33;8.70;99.90
19930;DHT22;10127;47.780;9.606;2024-03-08T13:03:02;8.70;99.90
19930;DHT22;10127;47.780;9.606;2024-03-08T13:05:28;9.30;99.90
19930;DHT22;10127;47.780;9.606;2024-03-08T13:07:54;9.00;99.90
19930;DHT22;10127;47.780;9.606;2024-03-08T13:10:20;9.30;99.90
19930;DHT22;10127;47.780;9.606;2024-03-08T13:12:46;8.80;99.90
19930;DHT22;10127;47.780;9.606;2024-03-08T13:15:12;8.70;99.90
19930;DHT22;10127;47.780;9.606;2024-03-08T13:17:45;8.80;99.90
19930;DHT22;10127;47.780;9.606;2024-03-08T13:20:17;9.10;99.90
19930;DHT22;10127;47.780;9.606;2024-03-08T13:22:45;9.00;99.90
19930;DHT22;10127;47.780;9.606;2024-03-08T13:25:12;8.80;99.90
19930;DHT22;10127;47.780;9.606;2024-03-08T13:27:41;9.20;99.90
19930;DHT22;10127;47.780;9.606;2024-03-08T13:30:14;9.20;99.90
19930;DHT22;10127;47.780;9.606;2024-03-08T13:32:44;9.30;99.90
19930;DHT22;10127;47.780;9.606;2024-03-08T13:35:10;9.80;99.90
19930;DHT22;10127;47.780;9.606;2024-03-08T13:37:40;10.20;99.90
19930;DHT22;10127;47.780;9.606;2024-03-08T13:40:06;10.10;99.90
19930;DHT22;10127;47.780;9.606;2024-03-08T13:42:42;10.00;99.90
19930;DHT22;10127;47.780;9.606;2024-03-08T13:45:09;9.70;99.90
19930;DHT22;10127;47.780;9.606;2024-03-08T13:47:41;9.70;99.90
19930;DHT22;10127;47.780;9.606;2024-03-08T13:50:07;9.80;99.90
19930;DHT22;10127;47.780;9.606;2024-03-08T13:52:37;9.80;99.90
19930;DHT22;10127;47.780;9.606;2024-03-08T13:55:04;10.00;99.90
19930;DHT22;10127;47.780;9.606;2024-03-08T13:57:30;9.90;99.90
19930;DHT22;10127;47.780;9.606;2024-03-08T13:59:57;10.00;99.90
19930;DHT22;10127;47.780;9.606;2024-03-08T14:02:23;9.60;99.90
19930;DHT22;10127;47.780;9.606;2024-03-08T14:04:53;9.90;99.90
19930;DHT22;10127;47.780;9.606;2024-03-08T14:07:20;9.90;99.90
19930;DHT22;10127;47.780;9.606;2024-03-08T14:09:45;9.80;99.90
19930;DHT22;10127;47.780;9.606;2024-03-08T14:12:11;9.70;99.90
19930;DHT22;10127;47.780;9.606;2024-03-08T14:14:37;9.60;99.90
19930;DHT22;10127;47.780;9.606;2024-03-08T14:17:03;10.00;99.90
19930;DHT22;10127;47.780;9.606;2024-03-08T14:19:29;9.80;99.90
19930;DHT22;10127;47.780;9.606;2024-03-08T14:21:59;9.90;99.90
19930;DHT22;10127;47.780;9.606;2024-03-08T14:24:25;9.90;99.90
19930;DHT22;10127;47.780;9.606;2024-03-08T14:26:51;9.90;99.90
19930;DHT22;10127;47.780;9.606;2024-03-08T14:29:17;9.90;99.90
19930;DHT22;10127;47.780;9.606;2024-03-08T14:31:44;9.30;99.90
19930;DHT22;10127;47.780;9.606;2024-03-08T14:34:10;9.40;99.90
19930;DHT22;10127;47.780;9.606;2024-03-08T14:36:36;9.90;99.90
19930;DHT22;10127;47.780;9.606;2024-03-08T14:39:03;10.30;99.90
19930;DHT22;10127;47.780;9.606;2024-03-08T14:41:29;10.00;99.90
19930;DHT22;10127;47.780;9.606;2024-03-08T14:43:55;10.10;99.90
19930;DHT22;10127;47.780;9.606;2024-03-08T14:46:22;10.20;99.90
19930;DHT22;10127;47.780;9.606;2024-03-08T14:48:49;10.20;99.90
19930;DHT22;10127;47.780;9.606;2024-03-08T14:51:17;10.00;99.90
19930;DHT22;10127;47.780;9.606;2024-03-08T14:53:45;10.00;99.90
19930;DHT22;10127;47.780;9.606;2024-03-08T14:56:13;9.70;99.90
19930;DHT22;10127;47.780;9.606;2024-03-08T14:58:45;9.70;99.90
19930;DHT22;10127;47.780;9.606;2024-03-08T15:01:17;9.70;99.90
19930;DHT22;10127;47.780;9.606;2024-03-08T15:03:47;10.50;99.90
19930;DHT22;10127;47.780;9.606;2024-03-08T15:06:13;10.70;99.90
19930;DHT22;10127;47.780;9.606;2024-03-08T15:08:40;10.70;99.90
19930;DHT22;10127;47.780;9.606;2024-03-08T15:11:06;10.60;99.90
19930;DHT22;10127;47.780;9.606;2024-03-08T15:13:33;10.70;99.90
19930;DHT22;10127;47.780;9.606;2024-03-08T15:16:06;11.20;99.90
19930;DHT22;10127;47.780;9.606;2024-03-08T15:18:32;11.50;99.90
19930;DHT22;10127;47.780;9.606;2024-03-08T15:21:05;11.10;99.90
19930;DHT22;10127;47.780;9.606;2024-03-08T15:23:36;11.30;99.90
19930;DHT22;10127;47.780;9.606;2024-03-08T15:26:02;11.20;99.90
19930;DHT22;10127;47.780;9.606;2024-03-08T15:28:29;11.10;99.90
19930;DHT22;10127;47.780;9.606;2024-03-08T15:31:06;11.10;99.90
19930;DHT22;10127;47.780;9.606;2024-03-08T15:33:36;11.10;99.90
19930;DHT22;10127;47.780;9.606;2024-03-08T15:36:17;11.20;99.90
19930;DHT22;10127;47.780;9.606;2024-03-08T15:38:46;10.90;99.90
19930;DHT22;10127;47.780;9.606;2024-03-08T15:41:13;10.80;99.90
19930;DHT22;10127;47.780;9.606;2024-03-08T15:43:39;10.60;99.90
19930;DHT22;10127;47.780;9.606;2024-03-08T15:46:06;10.70;99.90
19930;DHT22;10127;47.780;9.606;2024-03-08T15:48:32;10.70;99.90
19930;DHT22;10127;47.780;9.606;2024-03-08T15:50:59;10.90;99.90
19930;DHT22;10127;47.780;9.606;2024-03-08T15:53:28;11.10;99.90